createdAt,value
2023-01-20T00:01:52.385Z,3.67
2023-01-20T00:04:21.849Z,3.67
2023-01-20T00:06:51.776Z,4.20
2023-01-20T00:09:21.256Z,3.85
2023-01-20T00:11:50.689Z,3.72
2023-01-20T00:14:21.453Z,3.50
2023-01-20T00:16:50.874Z,3.43
2023-01-20T00:19:20.363Z,3.83
2023-01-20T00:21:49.881Z,3.70
2023-01-20T00:24:19.296Z,4.67
2023-01-20T00:26:48.781Z,4.83
2023-01-20T00:29:18.703Z,3.80
2023-01-20T00:31:48.121Z,3.95
2023-01-20T00:34:17.542Z,3.20
2023-01-20T00:36:47.109Z,4.35
2023-01-20T00:39:16.536Z,5.00
2023-01-20T00:41:45.938Z,3.50
2023-01-20T00:44:15.403Z,4.13
2023-01-20T00:46:44.851Z,3.20
2023-01-20T00:49:14.523Z,3.20
2023-01-20T00:51:44.039Z,4.55
2023-01-20T00:54:14.369Z,3.52
2023-01-20T00:56:43.890Z,3.60
2023-01-20T00:59:14.740Z,4.60
2023-01-20T01:01:46.147Z,3.70
2023-01-20T01:04:16.833Z,3.80
2023-01-20T01:06:46.327Z,3.37
2023-01-20T01:09:15.838Z,3.83
2023-01-20T01:11:45.965Z,3.90
2023-01-20T01:14:15.449Z,2.97
2023-01-20T01:16:45.331Z,4.37
2023-01-20T01:19:16.377Z,2.87
2023-01-20T01:21:46.477Z,2.70
2023-01-20T01:24:15.875Z,3.17
2023-01-20T01:26:45.717Z,4.77
2023-01-20T01:29:15.174Z,2.77
2023-01-20T01:31:44.697Z,3.47
2023-01-20T01:34:15.226Z,3.00
2023-01-20T01:36:44.692Z,3.08
2023-01-20T01:39:14.111Z,2.72
2023-01-20T01:41:43.553Z,3.57
2023-01-20T01:44:15.275Z,2.67
2023-01-20T01:46:45.023Z,2.12
2023-01-20T01:49:26.201Z,2.72
2023-01-20T01:52:04.945Z,2.40
2023-01-20T01:54:37.515Z,2.02
2023-01-20T01:57:10.749Z,2.27
2023-01-20T01:59:40.705Z,1.90
2023-01-20T02:02:10.262Z,1.80
2023-01-20T02:04:39.818Z,1.87
2023-01-20T02:07:18.414Z,1.60
2023-01-20T02:09:48.298Z,2.05
2023-01-20T02:12:21.592Z,1.75
2023-01-20T02:14:54.088Z,1.87
2023-01-20T02:17:38.818Z,1.80
2023-01-20T02:20:23.177Z,2.10
2023-01-20T02:22:56.685Z,2.77
2023-01-20T02:25:53.533Z,2.37
2023-01-20T02:28:26.146Z,1.90
2023-01-20T02:30:58.645Z,2.70
2023-01-20T02:33:39.987Z,2.40
2023-01-20T02:36:18.199Z,2.80
2023-01-20T02:38:50.716Z,2.22
2023-01-20T02:41:35.417Z,2.67
2023-01-20T02:44:41.803Z,2.20
2023-01-20T02:47:14.581Z,2.92
2023-01-20T02:50:11.726Z,1.98
2023-01-20T02:52:46.982Z,3.17
2023-01-20T02:55:20.296Z,2.30
2023-01-20T02:57:53.593Z,2.70
2023-01-20T03:00:44.463Z,2.60
2023-01-20T03:03:16.959Z,3.00
2023-01-20T03:05:49.784Z,3.03
2023-01-20T03:08:22.247Z,3.33
2023-01-20T03:10:54.979Z,3.77
2023-01-20T03:13:39.481Z,2.97
2023-01-20T03:16:15.937Z,2.83
2023-01-20T03:18:47.681Z,3.20
2023-01-20T03:21:17.521Z,5.78
2023-01-20T03:25:44.439Z,4.15
2023-01-20T03:28:14.617Z,4.25
2023-01-20T03:30:45.093Z,4.60
2023-01-20T03:33:18.384Z,5.78
2023-01-20T03:35:48.240Z,3.10
2023-01-20T04:18:40.945Z,2.98
2023-01-20T04:21:13.444Z,4.63
2023-01-20T04:26:17.013Z,3.55
2023-01-20T04:36:16.408Z,5.00
2023-01-20T04:38:45.835Z,4.08
2023-01-20T04:41:15.861Z,4.58
2023-01-20T04:43:47.652Z,4.35
2023-01-20T04:48:47.775Z,6.35
2023-01-20T04:51:17.280Z,5.53
2023-01-20T04:53:47.156Z,6.28
2023-01-20T04:56:17.034Z,7.17
2023-01-20T04:58:49.740Z,7.12
2023-01-20T05:03:49.503Z,3.50
2023-01-20T05:06:20.184Z,6.15
2023-01-20T05:08:49.633Z,7.33
2023-01-20T05:11:20.427Z,3.50
2023-01-20T05:13:49.929Z,6.15
2023-01-20T05:16:21.037Z,8.25
2023-01-20T05:18:52.169Z,4.80
2023-01-20T05:21:21.757Z,5.42
2023-01-20T05:23:52.188Z,3.05
2023-01-20T05:26:24.662Z,3.98
2023-01-20T05:31:23.150Z,4.35
2023-01-20T05:33:52.874Z,4.78
2023-01-20T05:36:22.457Z,4.40
2023-01-20T05:38:51.880Z,6.10
2023-01-20T05:41:22.476Z,9.13
2023-01-20T05:43:54.131Z,3.87
2023-01-20T05:46:24.140Z,5.60
2023-01-20T05:48:53.812Z,4.40
2023-01-20T05:51:23.236Z,5.50
2023-01-20T05:53:52.675Z,4.70
2023-01-20T05:56:22.911Z,4.75
2023-01-20T05:58:57.219Z,4.17
2023-01-20T06:01:26.877Z,7.67
2023-01-20T06:03:57.191Z,4.24
2023-01-20T06:06:27.078Z,8.50
2023-01-20T06:08:56.493Z,4.47
2023-01-20T06:11:26.087Z,5.12
2023-01-20T06:13:56.012Z,7.60
2023-01-20T06:16:25.651Z,5.22
2023-01-20T06:18:55.187Z,4.50
2023-01-20T06:21:25.255Z,6.05
2023-01-20T06:23:54.752Z,8.25
2023-01-20T06:26:24.352Z,6.87
2023-01-20T06:28:53.843Z,6.87
2023-01-20T06:31:23.445Z,5.50
2023-01-20T06:33:53.182Z,5.53
2023-01-20T06:36:23.135Z,3.72
2023-01-20T06:38:53.283Z,5.90
2023-01-20T06:41:22.917Z,8.48
2023-01-20T06:43:52.922Z,6.40
2023-01-20T06:46:22.661Z,8.73
2023-01-20T06:48:52.208Z,9.88
2023-01-20T06:51:23.143Z,9.50
2023-01-20T06:53:52.620Z,9.40
2023-01-20T06:56:23.594Z,7.17
2023-01-20T06:58:53.008Z,8.43
2023-01-20T07:01:25.620Z,10.20
2023-01-20T07:03:56.372Z,6.72
2023-01-20T07:06:31.691Z,16.37
2023-01-20T07:09:04.631Z,10.78
2023-01-20T07:11:36.094Z,6.30
2023-01-20T07:14:07.152Z,12.70
2023-01-20T07:16:37.306Z,10.58
2023-01-20T07:19:07.066Z,14.38
2023-01-20T07:21:36.485Z,9.93
2023-01-20T07:24:06.736Z,9.58
2023-01-20T07:26:36.419Z,12.65
2023-01-20T07:29:05.998Z,9.30
2023-01-20T07:31:36.319Z,6.90
2023-01-20T07:34:05.905Z,9.93
2023-01-20T07:36:36.077Z,11.83
2023-01-20T07:39:05.498Z,7.35
2023-01-20T07:41:35.204Z,14.23
2023-01-20T07:44:04.778Z,10.13
2023-01-20T07:46:34.302Z,9.45
2023-01-20T07:49:03.766Z,8.90
2023-01-20T07:51:33.914Z,11.60
2023-01-20T07:54:04.553Z,13.43
2023-01-20T07:56:35.329Z,12.53
2023-01-20T07:59:05.190Z,11.53
2023-01-20T08:01:35.205Z,11.05
2023-01-20T08:04:04.733Z,14.68
2023-01-20T08:06:34.386Z,6.95
2023-01-20T08:09:04.420Z,9.75
2023-01-20T08:11:33.821Z,6.08
2023-01-20T08:14:03.319Z,5.83
2023-01-20T08:16:32.837Z,8.13
2023-01-20T08:19:02.311Z,11.28
2023-01-20T08:21:33.581Z,7.67
2023-01-20T08:24:05.572Z,11.73
2023-01-20T08:26:35.303Z,8.77
2023-01-20T08:29:08.439Z,12.07
2023-01-20T08:31:38.586Z,9.83
2023-01-20T08:34:11.168Z,10.43
2023-01-20T08:36:42.232Z,9.90
2023-01-20T08:39:14.993Z,6.97
2023-01-20T08:41:47.331Z,11.73
2023-01-20T08:44:20.973Z,11.25
2023-01-20T08:46:52.058Z,17.62
2023-01-20T08:49:23.654Z,11.08
2023-01-20T08:51:53.256Z,12.15
2023-01-20T08:54:24.063Z,9.45
2023-01-20T08:56:54.865Z,18.27
2023-01-20T09:01:53.952Z,7.80
2023-01-20T09:04:23.378Z,8.95
2023-01-20T09:06:54.499Z,9.78
2023-01-20T09:09:24.421Z,9.95
2023-01-20T09:11:53.911Z,20.62
2023-01-20T09:14:25.979Z,9.13
2023-01-20T09:16:55.606Z,9.60
2023-01-20T09:19:25.048Z,12.78
2023-01-20T09:21:54.453Z,7.78
2023-01-20T09:24:25.841Z,8.55
2023-01-20T09:26:56.903Z,10.90
2023-01-20T09:29:29.000Z,8.90
2023-01-20T09:31:58.673Z,12.27
2023-01-20T09:34:30.177Z,8.18
2023-01-20T09:37:03.975Z,12.70
2023-01-20T09:39:52.569Z,9.35
2023-01-20T09:42:45.644Z,10.88
2023-01-20T09:45:27.268Z,11.25
2023-01-20T09:47:59.772Z,9.13
2023-01-20T09:50:53.267Z,15.63
2023-01-20T09:53:42.985Z,12.93
2023-01-20T09:56:21.909Z,11.08
2023-01-20T09:58:55.902Z,6.35
2023-01-20T10:01:44.289Z,11.10
2023-01-20T10:04:19.752Z,7.40
2023-01-20T10:06:56.222Z,10.68
2023-01-20T10:09:47.101Z,6.33
2023-01-20T10:12:23.122Z,8.60
2023-01-20T10:15:04.905Z,7.87
2023-01-20T10:17:54.070Z,9.20
2023-01-20T10:20:29.241Z,6.78
2023-01-20T10:23:10.930Z,11.18
2023-01-20T10:25:43.404Z,11.12
2023-01-20T10:28:19.704Z,9.48
2023-01-20T10:30:49.677Z,7.47
2023-01-20T10:33:23.219Z,6.12
2023-01-20T10:43:31.823Z,9.18
2023-01-20T10:46:19.273Z,6.72
2023-01-20T10:51:50.055Z,8.68
2023-01-20T10:54:28.709Z,7.83
2023-01-20T10:57:01.287Z,5.85
2023-01-20T10:59:33.793Z,7.50
2023-01-20T11:07:07.700Z,7.40
2023-01-20T11:09:38.565Z,6.50
2023-01-20T11:12:17.397Z,7.72
2023-01-20T11:14:49.313Z,7.95
2023-01-20T11:17:21.708Z,4.30
2023-01-20T11:19:57.111Z,6.72
2023-01-20T11:25:04.943Z,4.85
2023-01-20T11:27:46.951Z,8.63
2023-01-20T11:33:13.272Z,8.83
2023-01-20T11:35:46.071Z,4.37
2023-01-20T11:43:34.524Z,6.05
2023-01-20T11:48:45.490Z,6.42
2023-01-20T11:51:26.495Z,6.65
2023-01-20T11:54:12.100Z,6.30
2023-01-20T11:56:44.459Z,5.55
2023-01-20T11:59:22.845Z,7.42
2023-01-20T12:01:58.396Z,11.15
2023-01-20T12:04:33.681Z,4.85
2023-01-20T12:07:12.036Z,5.92
2023-01-20T12:09:44.965Z,7.20
2023-01-20T12:12:17.449Z,3.00
2023-01-20T12:17:38.761Z,8.40
2023-01-20T12:20:20.222Z,8.93
2023-01-20T12:23:07.469Z,7.30
2023-01-20T12:25:41.772Z,4.30
2023-01-20T12:28:14.512Z,3.92
2023-01-20T12:31:01.102Z,4.22
2023-01-20T12:33:35.319Z,9.03
2023-01-20T12:36:30.266Z,5.55
2023-01-20T12:39:33.105Z,4.75
2023-01-20T12:42:08.417Z,7.30
2023-01-20T12:44:59.178Z,5.72
2023-01-20T12:48:02.073Z,7.35
2023-01-20T12:50:52.707Z,5.17
2023-01-20T12:53:44.628Z,4.63
2023-01-20T12:56:26.310Z,5.80
2023-01-20T12:59:04.772Z,7.25
2023-01-20T13:09:28.687Z,9.80
2023-01-20T13:24:45.234Z,6.67
2023-01-20T13:29:54.521Z,5.85
2023-01-20T13:32:37.999Z,4.80
2023-01-20T13:35:25.440Z,5.87
2023-01-20T13:37:58.389Z,7.03
2023-01-20T13:40:45.867Z,5.42
2023-01-20T13:43:27.219Z,6.95
2023-01-20T13:46:05.795Z,8.80
2023-01-20T13:48:38.465Z,5.87
2023-01-20T13:51:31.341Z,5.03
2023-01-20T13:54:27.738Z,6.83
2023-01-20T13:57:24.611Z,10.48
2023-01-20T13:59:54.249Z,5.97
2023-01-20T14:02:29.291Z,9.63
2023-01-20T14:04:58.967Z,6.70
2023-01-20T14:07:32.825Z,5.85
2023-01-20T14:10:03.284Z,5.20
2023-01-20T14:12:35.772Z,6.62
2023-01-20T14:15:08.400Z,3.95
2023-01-20T14:17:37.850Z,5.55
2023-01-20T14:20:17.132Z,5.50
2023-01-20T14:22:46.874Z,5.37
2023-01-20T14:25:23.545Z,7.12
2023-01-20T14:27:54.651Z,6.22
2023-01-20T14:30:28.483Z,9.85
2023-01-20T14:32:58.071Z,6.60
2023-01-20T14:35:33.889Z,4.47
2023-01-20T14:38:03.931Z,4.97
2023-01-20T14:40:36.509Z,8.73
2023-01-20T14:43:18.609Z,4.72
2023-01-20T14:45:53.149Z,4.97
2023-01-20T14:48:34.547Z,6.37
2023-01-20T14:50:57.477Z,5.83
2023-01-20T14:53:27.116Z,5.03
2023-01-20T14:56:02.643Z,6.67
2023-01-20T14:58:35.117Z,5.22
2023-01-20T15:01:06.901Z,4.92
2023-01-20T15:03:37.205Z,8.03
2023-01-20T15:06:21.561Z,4.67
2023-01-20T15:09:05.650Z,7.20
2023-01-20T15:11:29.108Z,5.97
2023-01-20T15:14:12.142Z,5.83
2023-01-20T15:16:46.575Z,6.58
2023-01-20T15:19:20.893Z,7.03
2023-01-20T15:21:52.733Z,7.10
2023-01-20T15:24:35.382Z,3.73
2023-01-20T15:27:07.973Z,5.00
2023-01-20T15:29:39.108Z,5.93
2023-01-20T15:32:13.283Z,8.63
2023-01-20T15:34:42.816Z,6.22
2023-01-20T15:39:51.214Z,5.50
2023-01-20T15:42:23.341Z,7.80
2023-01-20T15:44:52.821Z,6.07
2023-01-20T15:47:26.532Z,6.55
2023-01-20T15:49:57.707Z,8.73
2023-01-20T15:52:27.428Z,9.70
2023-01-20T15:54:56.883Z,10.23
2023-01-20T15:57:26.441Z,7.42
2023-01-20T15:59:55.887Z,9.08
2023-01-20T16:02:25.681Z,9.00
2023-01-20T16:07:23.760Z,8.03
2023-01-20T16:22:21.087Z,8.18
2023-01-20T16:24:52.057Z,9.13
2023-01-20T16:27:24.676Z,8.18
2023-01-20T16:29:56.555Z,9.08
2023-01-20T16:32:26.028Z,5.75
2023-01-20T16:34:55.608Z,9.50
2023-01-20T16:37:25.100Z,9.38
2023-01-20T16:39:54.617Z,11.45
2023-01-20T16:42:24.146Z,8.68
2023-01-20T16:44:54.330Z,9.40
2023-01-20T16:47:23.774Z,8.63
2023-01-20T16:49:53.630Z,10.55
2023-01-20T16:52:23.104Z,9.78
2023-01-20T16:54:54.171Z,9.05
2023-01-20T16:57:23.675Z,9.00
2023-01-20T16:59:53.185Z,8.55
2023-01-20T17:02:24.451Z,8.78
2023-01-20T17:04:54.026Z,9.05
2023-01-20T17:09:52.066Z,12.50
2023-01-20T17:24:47.163Z,16.65
2023-01-20T17:29:45.199Z,11.53
2023-01-20T17:32:16.168Z,13.70
2023-01-20T17:34:45.609Z,12.63
2023-01-20T17:37:15.292Z,18.55
2023-01-20T17:39:46.881Z,20.45
2023-01-20T17:42:17.689Z,15.27
2023-01-20T18:07:10.083Z,22.40
2023-01-20T18:14:36.772Z,22.90
2023-01-20T18:17:06.245Z,22.77
2023-01-20T18:19:35.792Z,22.85
2023-01-20T18:42:00.633Z,31.52
2023-01-20T18:44:30.654Z,29.05
2023-01-20T18:47:01.825Z,26.73
2023-01-20T18:49:31.279Z,23.27
2023-01-20T18:52:00.726Z,25.80
2023-01-20T18:54:31.956Z,25.62
2023-01-20T18:57:01.411Z,27.35
2023-01-20T18:59:30.843Z,30.02
2023-01-20T19:02:00.383Z,28.30
2023-01-20T19:04:31.385Z,33.80
2023-01-20T19:07:00.867Z,26.00
2023-01-20T19:09:30.393Z,25.08
2023-01-20T19:11:59.845Z,34.00
2023-01-20T19:14:29.303Z,33.92
2023-01-20T19:16:58.757Z,40.08
2023-01-20T19:19:28.181Z,39.67
2023-01-20T19:21:57.692Z,51.92
2023-01-20T19:24:28.887Z,43.90
2023-01-20T19:27:00.100Z,58.50
2023-01-20T19:29:30.956Z,53.58
2023-01-20T19:32:01.531Z,47.08
2023-01-20T19:34:31.033Z,47.75
2023-01-20T19:37:01.965Z,41.98
2023-01-20T19:39:31.403Z,62.25
2023-01-20T19:42:00.865Z,45.80
2023-01-20T19:44:30.415Z,54.60
2023-01-20T19:47:01.546Z,48.30
2023-01-20T19:49:32.624Z,57.53
2023-01-20T19:52:02.078Z,51.95
2023-01-20T19:54:33.298Z,65.52
2023-01-20T19:57:02.908Z,55.30
2023-01-20T19:59:32.335Z,55.28
2023-01-20T20:02:01.800Z,53.20
2023-01-20T20:04:31.321Z,55.17
2023-01-20T20:07:00.768Z,45.95
2023-01-20T20:09:31.178Z,73.33
2023-01-20T20:12:02.260Z,65.03
2023-01-20T20:14:31.793Z,59.63
2023-01-20T20:17:02.660Z,53.08
2023-01-20T20:19:32.230Z,47.78
2023-01-20T20:22:01.673Z,53.15
2023-01-20T20:24:31.113Z,58.55
2023-01-20T20:27:00.572Z,61.23
2023-01-20T20:29:30.026Z,68.37
2023-01-20T20:31:59.583Z,73.00
2023-01-20T20:34:29.064Z,70.50
2023-01-20T20:36:58.518Z,89.83
2023-01-20T20:39:28.053Z,100.47
2023-01-20T20:41:57.569Z,108.67
2023-01-20T20:44:27.083Z,106.22
2023-01-20T20:46:56.554Z,101.72
2023-01-20T20:49:26.782Z,95.97
2023-01-20T20:51:56.247Z,94.27
2023-01-20T20:59:25.748Z,89.20
2023-01-20T21:01:55.381Z,92.70
2023-01-20T21:04:24.921Z,90.07
2023-01-20T21:06:54.375Z,89.75
2023-01-20T21:09:23.834Z,102.75
2023-01-20T21:11:53.303Z,100.33
2023-01-20T21:14:23.942Z,108.32
2023-01-20T21:16:53.397Z,100.70
2023-01-20T21:19:22.917Z,113.88
2023-01-20T21:21:52.425Z,110.28
2023-01-20T21:24:23.510Z,114.03
2023-01-20T21:26:53.567Z,106.95
2023-01-20T21:29:23.018Z,109.15
2023-01-20T21:31:54.045Z,111.30
2023-01-20T21:34:23.920Z,109.03
2023-01-20T21:36:55.000Z,100.22
2023-01-20T21:39:24.457Z,104.97
2023-01-20T21:41:53.917Z,103.55
2023-01-20T21:44:29.449Z,100.45
2023-01-20T21:47:01.767Z,88.60
2023-01-20T21:49:50.489Z,99.03
2023-01-20T21:52:40.867Z,81.60
2023-01-20T21:55:13.133Z,76.92
2023-01-20T21:57:43.258Z,73.78
2023-01-20T22:00:14.924Z,69.05
2023-01-20T22:02:47.903Z,68.28
2023-01-20T22:05:18.966Z,67.00
2023-01-20T22:07:48.456Z,69.20
2023-01-20T22:10:18.441Z,72.37
2023-01-20T22:12:49.079Z,73.15
2023-01-20T22:15:18.736Z,72.47
2023-01-20T22:17:48.155Z,62.23
2023-01-20T22:20:18.227Z,68.95
2023-01-20T22:22:48.228Z,72.17
2023-01-20T22:25:17.769Z,71.70
2023-01-20T22:27:49.279Z,80.07
2023-01-20T22:30:19.197Z,74.30
2023-01-20T22:32:48.741Z,65.37
2023-01-20T22:35:18.351Z,69.32
2023-01-20T22:37:47.789Z,65.08
2023-01-20T22:40:17.740Z,60.20
2023-01-20T22:42:48.282Z,47.73
2023-01-20T22:45:17.786Z,61.65
2023-01-20T22:47:47.708Z,52.00
2023-01-20T22:50:17.751Z,41.68
2023-01-20T22:52:48.262Z,51.10
2023-01-20T22:55:17.766Z,43.55
2023-01-20T22:57:47.265Z,40.20
2023-01-20T23:00:17.359Z,46.28
2023-01-20T23:02:47.013Z,50.17
2023-01-20T23:05:16.544Z,51.73
2023-01-20T23:07:45.959Z,51.58
2023-01-20T23:10:17.319Z,45.80
2023-01-20T23:12:47.431Z,49.40
2023-01-20T23:15:17.018Z,47.55
2023-01-20T23:17:46.444Z,46.70
2023-01-20T23:20:16.177Z,60.25
2023-01-20T23:22:45.775Z,64.65
2023-01-20T23:25:15.349Z,57.03
2023-01-20T23:27:44.848Z,54.27
2023-01-20T23:30:14.695Z,62.83
2023-01-20T23:32:45.735Z,52.67
2023-01-20T23:35:15.239Z,59.50
2023-01-20T23:37:44.753Z,66.20
2023-01-20T23:40:14.533Z,73.00
2023-01-20T23:42:44.555Z,74.10
2023-01-20T23:45:14.619Z,66.75
2023-01-20T23:47:44.909Z,65.12
2023-01-20T23:50:14.597Z,57.58
2023-01-20T23:52:45.481Z,67.47
2023-01-20T23:55:14.986Z,67.55
2023-01-20T23:57:44.423Z,68.12
